createdAt,value
2018-12-12T00:01:50.588Z,7.35
2018-12-12T00:04:20.451Z,7.60
2018-12-12T00:06:50.424Z,7.80
2018-12-12T00:09:20.129Z,7.17
2018-12-12T00:11:49.777Z,6.90
2018-12-12T00:14:19.371Z,7.40
2018-12-12T00:16:48.892Z,7.70
2018-12-12T00:19:18.494Z,7.58
2018-12-12T00:21:48.180Z,7.45
2018-12-12T00:24:17.926Z,6.22
2018-12-12T00:26:47.320Z,6.62
2018-12-12T00:29:16.852Z,6.05
2018-12-12T00:31:46.528Z,6.75
2018-12-12T00:34:16.300Z,7.50
2018-12-12T00:36:45.976Z,7.58
2018-12-12T00:39:15.548Z,7.83
2018-12-12T00:41:45.240Z,7.85
2018-12-12T00:44:14.835Z,8.88
2018-12-12T00:46:44.904Z,7.35
2018-12-12T00:49:14.923Z,6.90
2018-12-12T00:51:45.104Z,7.00
2018-12-12T00:54:14.848Z,7.10
2018-12-12T00:56:44.653Z,6.65
2018-12-12T00:59:14.385Z,6.90
2018-12-12T01:01:44.054Z,7.25
2018-12-12T01:04:13.718Z,6.58
2018-12-12T01:06:43.172Z,7.47
2018-12-12T01:09:12.653Z,7.37
2018-12-12T01:11:47.339Z,6.85
2018-12-12T01:14:17.047Z,8.60
2018-12-12T01:16:46.472Z,6.53
2018-12-12T01:19:15.973Z,7.03
2018-12-12T01:21:45.627Z,8.77
2018-12-12T01:24:15.074Z,6.47
2018-12-12T01:26:44.733Z,5.95
2018-12-12T01:29:14.248Z,9.50
2018-12-12T01:31:43.845Z,6.30
2018-12-12T01:34:13.246Z,6.80
2018-12-12T01:36:42.681Z,8.03
2018-12-12T01:39:12.477Z,6.60
2018-12-12T01:41:42.045Z,8.40
2018-12-12T01:44:11.580Z,8.93
2018-12-12T01:46:41.250Z,6.20
2018-12-12T01:49:10.768Z,8.77
2018-12-12T01:51:40.368Z,6.67
2018-12-12T01:54:10.008Z,7.65
2018-12-12T01:56:39.396Z,5.95
2018-12-12T01:59:09.041Z,6.37
2018-12-12T02:01:38.644Z,6.12
2018-12-12T02:04:08.408Z,5.63
2018-12-12T02:06:37.881Z,6.00
2018-12-12T02:09:07.719Z,7.12
2018-12-12T02:11:37.345Z,6.72
2018-12-12T02:14:06.944Z,7.12
2018-12-12T02:16:36.446Z,5.97
2018-12-12T02:19:06.480Z,6.00
2018-12-12T02:21:36.155Z,7.75
2018-12-12T02:24:05.731Z,5.92
2018-12-12T02:26:35.132Z,6.78
2018-12-12T02:29:04.979Z,5.47
2018-12-12T02:31:34.533Z,7.22
2018-12-12T02:34:04.207Z,8.43
2018-12-12T02:36:33.818Z,6.10
2018-12-12T02:39:04.076Z,5.20
2018-12-12T02:41:33.775Z,6.78
2018-12-12T02:44:08.088Z,5.45
2018-12-12T02:46:37.994Z,5.67
2018-12-12T02:49:07.570Z,6.10
2018-12-12T02:51:37.334Z,5.95
2018-12-12T02:54:06.884Z,7.42
2018-12-12T02:56:36.414Z,6.58
2018-12-12T02:59:06.160Z,5.97
2018-12-12T03:01:35.839Z,5.50
2018-12-12T03:04:05.556Z,6.80
2018-12-12T03:06:35.135Z,5.95
2018-12-12T03:09:07.340Z,7.33
2018-12-12T03:11:37.023Z,6.03
2018-12-12T03:14:06.582Z,6.40
2018-12-12T03:16:36.319Z,6.10
2018-12-12T03:19:06.067Z,7.28
2018-12-12T03:21:35.482Z,6.60
2018-12-12T03:24:06.634Z,6.15
2018-12-12T03:26:36.401Z,5.87
2018-12-12T03:29:06.059Z,6.60
2018-12-12T03:31:35.420Z,6.80
2018-12-12T03:34:04.840Z,7.28
2018-12-12T03:36:34.375Z,6.78
2018-12-12T03:39:06.349Z,6.53
2018-12-12T03:41:36.139Z,6.95
2018-12-12T03:44:05.781Z,7.17
2018-12-12T03:46:35.423Z,7.45
2018-12-12T03:49:04.953Z,8.18
2018-12-12T03:51:34.691Z,6.22
2018-12-12T03:54:04.104Z,7.05
2018-12-12T03:56:33.535Z,7.33
2018-12-12T03:59:03.264Z,7.30
2018-12-12T04:01:32.837Z,7.97
2018-12-12T04:04:02.535Z,8.40
2018-12-12T04:06:32.185Z,8.38
2018-12-12T04:09:01.937Z,8.83
2018-12-12T04:11:31.523Z,7.50
2018-12-12T04:14:01.061Z,6.70
2018-12-12T04:16:31.138Z,6.78
2018-12-12T04:19:00.834Z,7.47
2018-12-12T04:21:30.486Z,6.03
2018-12-12T04:24:00.150Z,5.92
2018-12-12T04:26:29.760Z,6.97
2018-12-12T04:28:59.168Z,5.80
2018-12-12T04:31:29.049Z,7.62
2018-12-12T04:33:58.664Z,7.08
2018-12-12T04:36:28.230Z,6.80
2018-12-12T04:38:57.849Z,12.58
2018-12-12T04:41:27.604Z,8.08
2018-12-12T04:43:57.252Z,8.75
2018-12-12T04:46:26.989Z,8.00
2018-12-12T04:48:56.687Z,8.30
2018-12-12T04:51:26.362Z,7.65
2018-12-12T04:53:56.096Z,9.15
2018-12-12T04:56:25.689Z,10.53
2018-12-12T04:58:55.874Z,10.15
2018-12-12T05:01:25.519Z,11.45
2018-12-12T05:03:55.167Z,10.82
2018-12-12T05:06:24.520Z,10.75
2018-12-12T05:08:54.116Z,13.25
2018-12-12T05:11:23.759Z,10.80
2018-12-12T05:13:53.109Z,11.55
2018-12-12T05:16:22.817Z,11.33
2018-12-12T05:18:52.552Z,6.97
2018-12-12T05:21:22.190Z,6.80
2018-12-12T05:23:51.893Z,5.95
2018-12-12T05:26:21.419Z,6.78
2018-12-12T05:28:51.051Z,7.05
2018-12-12T05:31:20.639Z,6.78
2018-12-12T05:33:50.218Z,6.50
2018-12-12T05:36:20.070Z,9.00
2018-12-12T05:38:49.790Z,8.15
2018-12-12T05:41:19.514Z,11.05
2018-12-12T05:43:49.272Z,8.48
2018-12-12T05:46:18.887Z,8.18
2018-12-12T05:48:48.417Z,8.10
2018-12-12T05:51:17.863Z,7.97
2018-12-12T05:53:47.336Z,6.62
2018-12-12T05:56:16.733Z,7.30
2018-12-12T05:58:46.188Z,6.22
2018-12-12T06:01:15.586Z,6.05
2018-12-12T06:03:45.242Z,11.15
2018-12-12T06:06:14.856Z,6.67
2018-12-12T06:08:44.592Z,7.65
2018-12-12T06:11:14.306Z,8.83
2018-12-12T06:13:43.908Z,6.28
2018-12-12T06:16:13.588Z,8.30
2018-12-12T06:18:43.204Z,8.03
2018-12-12T06:21:12.787Z,7.50
2018-12-12T06:23:42.155Z,5.87
2018-12-12T06:26:13.100Z,6.80
2018-12-12T06:28:42.560Z,5.90
2018-12-12T06:31:12.139Z,6.70
2018-12-12T06:33:41.873Z,7.92
2018-12-12T06:36:11.613Z,8.90
2018-12-12T06:38:41.374Z,6.17
2018-12-12T06:41:10.823Z,11.15
2018-12-12T06:43:40.508Z,6.33
2018-12-12T06:46:10.276Z,6.72
2018-12-12T06:48:39.788Z,6.37
2018-12-12T06:51:09.699Z,6.58
2018-12-12T06:53:39.394Z,7.73
2018-12-12T06:56:09.066Z,6.05
2018-12-12T06:58:38.533Z,7.62
2018-12-12T07:01:08.646Z,8.00
2018-12-12T07:03:38.284Z,9.45
2018-12-12T07:06:07.835Z,8.40
2018-12-12T07:08:37.613Z,7.00
2018-12-12T07:11:07.177Z,6.75
2018-12-12T07:13:36.544Z,8.18
2018-12-12T07:16:06.232Z,8.18
2018-12-12T07:18:35.675Z,8.70
2018-12-12T07:21:05.031Z,8.30
2018-12-12T07:23:34.492Z,7.65
2018-12-12T07:26:04.299Z,6.40
2018-12-12T07:28:34.035Z,8.40
2018-12-12T07:31:03.667Z,7.08
2018-12-12T07:33:33.210Z,8.45
2018-12-12T07:36:02.838Z,5.53
2018-12-12T07:38:32.399Z,5.25
2018-12-12T07:41:01.848Z,5.93
2018-12-12T07:43:31.515Z,7.08
2018-12-12T07:46:00.976Z,6.15
2018-12-12T07:48:30.653Z,5.92
2018-12-12T07:51:00.131Z,9.08
2018-12-12T07:53:29.955Z,5.97
2018-12-12T07:55:59.521Z,7.80
2018-12-12T07:58:29.275Z,6.70
2018-12-12T08:00:59.055Z,6.65
2018-12-12T08:03:28.678Z,6.33
2018-12-12T08:05:58.415Z,6.80
2018-12-12T08:08:27.839Z,7.22
2018-12-12T08:10:57.615Z,6.22
2018-12-12T08:13:27.198Z,6.75
2018-12-12T08:15:57.532Z,9.53
2018-12-12T08:18:27.197Z,7.22
2018-12-12T08:20:56.764Z,6.37
2018-12-12T08:23:26.429Z,8.35
2018-12-12T08:25:56.101Z,6.95
2018-12-12T08:28:25.829Z,6.93
2018-12-12T08:30:55.535Z,7.20
2018-12-12T08:33:25.122Z,5.90
2018-12-12T08:35:54.702Z,6.00
2018-12-12T08:38:24.444Z,8.60
2018-12-12T08:40:54.071Z,8.83
2018-12-12T08:43:23.694Z,7.47
2018-12-12T08:45:53.343Z,8.40
2018-12-12T08:48:22.938Z,9.37
2018-12-12T08:50:52.520Z,8.07
2018-12-12T08:53:22.062Z,8.57
2018-12-12T08:55:51.687Z,9.30
2018-12-12T08:58:21.295Z,8.30
2018-12-12T09:00:50.960Z,9.53
2018-12-12T09:03:20.701Z,11.35
2018-12-12T09:05:50.388Z,8.78
2018-12-12T09:08:20.000Z,8.83
2018-12-12T09:10:49.611Z,9.23
2018-12-12T09:13:19.263Z,8.13
2018-12-12T09:15:48.892Z,7.57
2018-12-12T09:18:18.461Z,7.67
2018-12-12T09:20:48.040Z,8.68
2018-12-12T09:23:17.752Z,7.83
2018-12-12T09:25:47.470Z,7.17
2018-12-12T09:28:17.090Z,7.77
2018-12-12T09:30:46.577Z,7.08
2018-12-12T09:33:16.200Z,7.17
2018-12-12T09:35:45.855Z,8.60
2018-12-12T09:38:15.618Z,7.73
2018-12-12T09:40:45.508Z,6.72
2018-12-12T09:43:15.029Z,9.23
2018-12-12T09:45:44.683Z,8.50
2018-12-12T09:48:19.313Z,7.53
2018-12-12T09:50:46.095Z,9.38
2018-12-12T09:53:15.783Z,7.45
2018-12-12T09:55:45.534Z,8.28
2018-12-12T09:58:15.126Z,9.25
2018-12-12T10:00:44.717Z,9.17
2018-12-12T10:03:14.295Z,8.50
2018-12-12T10:05:44.053Z,7.67
2018-12-12T10:08:13.647Z,7.20
2018-12-12T10:10:43.302Z,7.30
2018-12-12T10:13:13.017Z,8.38
2018-12-12T10:15:42.682Z,9.40
2018-12-12T10:18:12.448Z,9.30
2018-12-12T10:20:42.146Z,8.77
2018-12-12T10:23:11.624Z,8.53
2018-12-12T10:25:41.396Z,9.20
2018-12-12T10:28:10.974Z,8.95
2018-12-12T10:30:40.728Z,8.25
2018-12-12T10:33:10.152Z,12.17
2018-12-12T10:35:39.866Z,7.87
2018-12-12T10:38:09.640Z,9.70
2018-12-12T10:40:39.183Z,10.57
2018-12-12T10:43:09.298Z,8.10
2018-12-12T10:45:39.157Z,10.03
2018-12-12T10:48:08.872Z,8.03
2018-12-12T10:50:38.389Z,10.20
2018-12-12T10:53:08.084Z,9.43
2018-12-12T10:55:37.506Z,8.20
2018-12-12T10:58:07.104Z,8.67
2018-12-12T11:00:40.226Z,9.60
2018-12-12T11:03:15.199Z,9.93
2018-12-12T11:05:44.662Z,8.60
2018-12-12T11:08:14.379Z,9.90
2018-12-12T11:10:44.230Z,8.20
2018-12-12T11:13:13.805Z,13.70
2018-12-12T11:15:43.355Z,9.03
2018-12-12T11:18:12.909Z,12.43
2018-12-12T11:20:42.608Z,10.50
2018-12-12T11:23:12.255Z,12.70
2018-12-12T11:25:41.841Z,10.10
2018-12-12T11:28:11.371Z,10.20
2018-12-12T11:30:41.200Z,10.50
2018-12-12T11:33:10.784Z,9.83
2018-12-12T11:35:40.467Z,10.70
2018-12-12T11:38:09.999Z,10.47
2018-12-12T11:40:39.706Z,10.70
2018-12-12T11:43:09.522Z,13.07
2018-12-12T11:45:38.985Z,11.63
2018-12-12T11:48:08.660Z,11.70
2018-12-12T11:50:38.260Z,13.18
2018-12-12T11:53:08.003Z,13.77
2018-12-12T11:55:37.729Z,11.93
2018-12-12T11:58:07.451Z,11.10
2018-12-12T12:00:37.109Z,15.40
2018-12-12T12:03:06.794Z,11.13
2018-12-12T12:05:36.315Z,11.00
2018-12-12T12:08:06.006Z,11.40
2018-12-12T12:10:35.722Z,11.20
2018-12-12T12:13:06.909Z,12.20
2018-12-12T12:15:36.683Z,11.93
2018-12-12T12:18:06.657Z,11.47
2018-12-12T12:20:36.131Z,11.73
2018-12-12T12:23:05.860Z,12.13
2018-12-12T12:25:35.546Z,13.00
2018-12-12T12:28:05.098Z,13.13
2018-12-12T12:30:34.857Z,13.80
2018-12-12T12:33:04.398Z,15.17
2018-12-12T12:35:34.202Z,14.40
2018-12-12T12:38:03.971Z,11.30
2018-12-12T12:40:33.659Z,12.83
2018-12-12T12:43:03.622Z,12.27
2018-12-12T12:45:33.168Z,13.37
2018-12-12T12:48:02.636Z,12.10
2018-12-12T12:50:32.420Z,16.27
2018-12-12T12:53:01.856Z,11.30
2018-12-12T12:55:31.497Z,10.80
2018-12-12T12:58:01.211Z,14.80
2018-12-12T13:00:30.873Z,10.80
2018-12-12T13:03:00.586Z,11.07
2018-12-12T13:05:30.119Z,14.20
2018-12-12T13:07:59.655Z,12.37
2018-12-12T13:10:29.566Z,12.73
2018-12-12T13:12:59.853Z,14.10
2018-12-12T13:15:30.155Z,10.67
2018-12-12T13:17:59.851Z,11.60
2018-12-12T13:20:29.398Z,15.27
2018-12-12T13:22:59.633Z,12.27
2018-12-12T13:25:29.125Z,11.70
2018-12-12T13:27:59.919Z,11.80
2018-12-12T13:30:29.916Z,11.50
2018-12-12T13:32:59.819Z,12.17
2018-12-12T13:35:29.520Z,15.53
2018-12-12T13:37:59.664Z,14.20
2018-12-12T13:40:29.295Z,12.10
2018-12-12T13:42:59.034Z,12.27
2018-12-12T13:45:28.718Z,13.60
2018-12-12T13:47:58.443Z,11.47
2018-12-12T13:50:28.216Z,11.43
2018-12-12T13:52:57.939Z,12.37
2018-12-12T13:55:27.709Z,13.67
2018-12-12T13:57:57.433Z,13.30
2018-12-12T14:00:27.222Z,13.87
2018-12-12T14:02:56.858Z,11.80
2018-12-12T14:05:26.380Z,12.20
2018-12-12T14:07:55.924Z,12.40
2018-12-12T14:10:25.564Z,13.67
2018-12-12T14:12:55.086Z,12.67
2018-12-12T14:15:24.606Z,13.43
2018-12-12T14:17:54.287Z,11.93
2018-12-12T14:20:23.804Z,14.83
2018-12-12T14:22:53.422Z,14.37
2018-12-12T14:25:23.061Z,13.13
2018-12-12T14:27:52.752Z,15.07
2018-12-12T14:30:22.365Z,15.60
2018-12-12T14:32:51.906Z,11.77
2018-12-12T14:35:21.632Z,13.90
2018-12-12T14:37:51.488Z,14.07
2018-12-12T14:40:21.275Z,11.27
2018-12-12T14:42:50.980Z,12.30
2018-12-12T14:45:20.619Z,12.67
2018-12-12T14:47:50.429Z,12.50
2018-12-12T14:50:20.031Z,13.50
2018-12-12T14:52:50.005Z,13.33
2018-12-12T14:55:19.578Z,13.40
2018-12-12T14:57:49.114Z,11.30
2018-12-12T15:00:18.885Z,13.17
2018-12-12T15:02:48.481Z,10.73
2018-12-12T15:05:18.035Z,13.80
2018-12-12T15:07:47.568Z,13.90
2018-12-12T15:10:17.211Z,13.90
2018-12-12T15:12:46.959Z,10.83
2018-12-12T15:15:16.752Z,11.50
2018-12-12T15:17:46.319Z,12.10
2018-12-12T15:20:15.996Z,12.33
2018-12-12T15:22:45.547Z,14.37
2018-12-12T15:25:15.115Z,12.90
2018-12-12T15:27:44.864Z,13.90
2018-12-12T15:30:14.590Z,15.47
2018-12-12T15:32:44.457Z,13.37
2018-12-12T15:35:14.360Z,14.73
2018-12-12T15:37:44.043Z,14.70
2018-12-12T15:40:14.109Z,15.93
2018-12-12T15:42:44.767Z,14.90
2018-12-12T15:45:14.352Z,11.90
2018-12-12T15:47:43.939Z,12.23
2018-12-12T15:50:13.654Z,12.40
2018-12-12T15:52:43.101Z,12.73
2018-12-12T15:55:12.479Z,11.63
2018-12-12T15:57:42.342Z,12.13
2018-12-12T16:00:12.383Z,12.23
2018-12-12T16:02:42.652Z,13.90
2018-12-12T16:05:12.144Z,12.63
2018-12-12T16:07:41.840Z,14.70
2018-12-12T16:10:11.454Z,15.17
2018-12-12T16:12:41.241Z,15.17
2018-12-12T16:15:10.779Z,16.10
2018-12-12T16:17:40.521Z,20.17
2018-12-12T16:20:10.035Z,18.70
2018-12-12T16:22:39.943Z,17.63
2018-12-12T16:25:09.706Z,13.87
2018-12-12T16:27:39.449Z,16.27
2018-12-12T16:30:09.717Z,13.13
2018-12-12T16:32:39.903Z,12.20
2018-12-12T16:35:09.629Z,13.00
2018-12-12T16:37:39.321Z,11.80
2018-12-12T16:40:09.115Z,13.70
2018-12-12T16:42:39.394Z,12.67
2018-12-12T16:45:09.140Z,12.00
2018-12-12T16:47:39.060Z,13.17
2018-12-12T16:50:09.235Z,10.97
2018-12-12T16:52:39.398Z,12.30
2018-12-12T16:55:09.607Z,13.27
2018-12-12T16:57:39.764Z,10.67
2018-12-12T17:00:10.392Z,11.03
2018-12-12T17:02:40.363Z,11.80
2018-12-12T17:05:10.198Z,8.60
2018-12-12T17:07:39.720Z,10.03
2018-12-12T17:10:10.853Z,7.80
2018-12-12T17:12:40.976Z,8.23
2018-12-12T17:15:10.685Z,7.60
2018-12-12T17:17:40.588Z,7.80
2018-12-12T17:20:11.012Z,9.50
2018-12-12T17:22:40.706Z,8.70
2018-12-12T17:25:10.686Z,7.57
2018-12-12T17:27:40.124Z,5.87
2018-12-12T17:30:11.214Z,5.53
2018-12-12T17:32:40.934Z,6.20
2018-12-12T17:35:10.994Z,5.03
2018-12-12T17:37:40.360Z,6.50
2018-12-12T17:40:10.578Z,5.40
2018-12-12T17:42:40.570Z,5.10
2018-12-12T17:45:10.471Z,4.73
2018-12-12T17:47:40.747Z,5.43
2018-12-12T17:50:10.727Z,6.47
2018-12-12T17:52:40.592Z,5.13
2018-12-12T17:55:10.265Z,5.67
2018-12-12T17:57:40.336Z,6.23
2018-12-12T18:00:10.584Z,5.33
2018-12-12T18:02:40.247Z,5.40
2018-12-12T18:05:15.208Z,5.47
2018-12-12T18:07:41.975Z,5.43
2018-12-12T18:10:11.707Z,6.33
2018-12-12T18:12:41.273Z,5.97
2018-12-12T18:15:10.986Z,6.37
2018-12-12T18:17:40.773Z,5.87
2018-12-12T18:20:10.308Z,6.13
2018-12-12T18:22:40.092Z,5.80
2018-12-12T18:25:09.757Z,6.63
2018-12-12T18:27:39.481Z,6.80
2018-12-12T18:30:09.612Z,7.20
2018-12-12T18:32:39.138Z,7.40
2018-12-12T18:35:08.784Z,6.92
2018-12-12T18:37:38.485Z,6.07
2018-12-12T18:40:08.335Z,6.30
2018-12-12T18:42:37.914Z,6.80
2018-12-12T18:45:07.799Z,7.50
2018-12-12T18:47:37.506Z,7.97
2018-12-12T18:50:08.050Z,8.65
2018-12-12T18:52:37.537Z,7.27
2018-12-12T18:55:07.543Z,7.30
2018-12-12T18:57:37.220Z,7.10
2018-12-12T19:00:07.299Z,8.50
2018-12-12T19:02:37.049Z,9.30
2018-12-12T19:05:07.015Z,8.30
2018-12-12T19:07:36.620Z,7.10
2018-12-12T19:10:07.022Z,6.10
2018-12-12T19:12:36.712Z,6.30
2018-12-12T19:15:07.877Z,6.03
2018-12-12T19:17:37.604Z,5.63
2018-12-12T19:20:08.160Z,6.60
2018-12-12T19:22:37.692Z,5.47
2018-12-12T19:25:07.690Z,6.47
2018-12-12T19:27:37.508Z,6.10
2018-12-12T19:30:08.039Z,8.50
2018-12-12T19:32:37.832Z,7.77
2018-12-12T19:35:08.446Z,7.63
2018-12-12T19:37:38.138Z,7.10
2018-12-12T19:40:08.913Z,6.47
2018-12-12T19:42:38.583Z,8.57
2018-12-12T19:45:08.894Z,7.05
2018-12-12T19:47:38.977Z,7.30
2018-12-12T19:50:09.621Z,6.00
2018-12-12T19:52:39.533Z,6.70
2018-12-12T19:55:09.368Z,6.23
2018-12-12T19:57:39.272Z,6.60
2018-12-12T20:00:09.228Z,6.87
2018-12-12T20:02:39.074Z,7.80
2018-12-12T20:05:09.016Z,7.37
2018-12-12T20:07:38.825Z,7.53
2018-12-12T20:10:08.815Z,6.45
2018-12-12T20:12:38.464Z,7.23
2018-12-12T20:15:11.244Z,7.07
2018-12-12T20:17:41.022Z,6.75
2018-12-12T20:20:10.647Z,6.83
2018-12-12T20:22:40.180Z,6.92
2018-12-12T20:25:09.855Z,6.77
2018-12-12T20:27:41.781Z,6.25
2018-12-12T20:30:11.815Z,6.67
2018-12-12T20:32:41.313Z,6.70
2018-12-12T20:35:11.054Z,7.17
2018-12-12T20:37:40.900Z,6.75
2018-12-12T20:40:10.543Z,6.23
2018-12-12T20:42:40.189Z,6.37
2018-12-12T20:45:09.919Z,6.67
2018-12-12T20:47:39.960Z,7.10
2018-12-12T20:50:09.599Z,6.63
2018-12-12T20:52:39.131Z,5.50
2018-12-12T20:55:09.187Z,6.30
2018-12-12T20:57:38.682Z,6.03
2018-12-12T21:00:43.408Z,5.90
2018-12-12T21:03:14.204Z,6.53
2018-12-12T21:05:43.759Z,5.67
2018-12-12T21:08:13.149Z,5.97
2018-12-12T21:10:42.739Z,5.67
2018-12-12T21:13:12.178Z,7.73
2018-12-12T21:15:46.081Z,6.28
2018-12-12T21:18:15.990Z,6.22
2018-12-12T21:20:45.626Z,6.03
2018-12-12T21:23:15.118Z,6.62
2018-12-12T21:25:44.841Z,6.00
2018-12-12T21:28:14.311Z,6.20
2018-12-12T21:30:43.918Z,6.53
2018-12-12T21:33:13.424Z,6.80
2018-12-12T21:35:43.037Z,7.12
2018-12-12T21:38:12.738Z,6.42
2018-12-12T21:40:42.586Z,6.80
2018-12-12T21:43:12.346Z,6.60
2018-12-12T21:45:41.987Z,7.35
2018-12-12T21:48:11.862Z,7.12
2018-12-12T21:50:41.819Z,7.22
2018-12-12T21:53:11.356Z,7.30
2018-12-12T21:55:40.942Z,7.80
2018-12-12T21:58:10.542Z,6.10
2018-12-12T22:00:40.128Z,6.60
2018-12-12T22:03:09.849Z,7.15
2018-12-12T22:05:39.456Z,8.48
2018-12-12T22:08:08.934Z,7.40
2018-12-12T22:10:38.658Z,6.42
2018-12-12T22:13:08.294Z,6.47
2018-12-12T22:15:37.762Z,6.80
2018-12-12T22:18:07.408Z,7.30
2018-12-12T22:20:36.999Z,5.62
2018-12-12T22:23:06.701Z,6.78
2018-12-12T22:25:36.281Z,6.37
2018-12-12T22:28:05.950Z,6.50
2018-12-12T22:30:35.798Z,5.78
2018-12-12T22:33:05.457Z,6.37
2018-12-12T22:35:35.123Z,6.00
2018-12-12T22:38:04.697Z,5.83
2018-12-12T22:40:34.418Z,6.40
2018-12-12T22:43:04.177Z,6.22
2018-12-12T22:45:34.030Z,6.33
2018-12-12T22:48:03.896Z,6.70
2018-12-12T22:50:33.544Z,7.10
2018-12-12T22:53:03.192Z,6.08
2018-12-12T22:55:32.729Z,6.28
2018-12-12T22:58:02.197Z,6.63
2018-12-12T23:00:35.514Z,7.87
2018-12-12T23:03:05.299Z,7.80
2018-12-12T23:05:34.962Z,8.73
2018-12-12T23:08:04.634Z,7.00
2018-12-12T23:10:34.212Z,6.30
2018-12-12T23:13:03.769Z,6.10
2018-12-12T23:15:33.225Z,6.40
2018-12-12T23:18:02.615Z,6.43
2018-12-12T23:20:32.233Z,6.28
2018-12-12T23:23:01.813Z,7.20
2018-12-12T23:25:31.561Z,6.08
2018-12-12T23:28:01.279Z,6.47
2018-12-12T23:30:32.994Z,6.05
2018-12-12T23:33:02.649Z,5.70
2018-12-12T23:35:32.342Z,5.65
2018-12-12T23:38:01.950Z,5.70
2018-12-12T23:40:31.522Z,6.53
2018-12-12T23:43:01.128Z,5.67
2018-12-12T23:45:30.896Z,6.58
2018-12-12T23:48:00.278Z,6.75
2018-12-12T23:50:30.167Z,6.30
2018-12-12T23:52:59.567Z,5.50
2018-12-12T23:55:29.216Z,6.17
2018-12-12T23:57:58.850Z,5.60
